createdAt,value
2017-08-24T00:00:22.211Z,99.90
2017-08-24T00:02:49.894Z,99.90
2017-08-24T00:05:17.498Z,99.90
2017-08-24T00:07:45.067Z,99.90
2017-08-24T00:10:13.033Z,99.90
2017-08-24T00:12:40.585Z,99.90
2017-08-24T00:15:08.113Z,99.90
2017-08-24T00:17:35.706Z,99.90
2017-08-24T00:20:03.235Z,99.90
2017-08-24T00:22:30.777Z,99.90
2017-08-24T00:24:58.321Z,99.90
2017-08-24T00:27:25.949Z,99.90
2017-08-24T00:29:53.909Z,99.90
2017-08-24T00:32:21.473Z,99.90
2017-08-24T00:34:48.997Z,99.90
2017-08-24T00:37:16.593Z,99.90
2017-08-24T00:39:44.143Z,99.90
2017-08-24T00:42:11.712Z,99.90
2017-08-24T00:44:39.297Z,99.90
2017-08-24T00:47:06.932Z,99.90
2017-08-24T00:49:34.463Z,99.90
2017-08-24T00:52:01.989Z,99.90
2017-08-24T00:54:30.300Z,99.90
2017-08-24T00:56:57.884Z,99.90
2017-08-24T00:59:25.451Z,99.90
2017-08-24T01:01:52.991Z,99.90
2017-08-24T01:04:20.590Z,99.90
2017-08-24T01:06:48.112Z,99.90
2017-08-24T01:09:15.656Z,99.90
2017-08-24T01:11:43.246Z,99.90
2017-08-24T01:14:10.806Z,99.90
2017-08-24T01:16:38.365Z,99.90
2017-08-24T01:19:06.494Z,99.90
2017-08-24T01:21:34.105Z,99.90
2017-08-24T01:24:01.661Z,99.90
2017-08-24T01:26:29.221Z,99.90
2017-08-24T01:28:56.788Z,99.90
2017-08-24T01:31:24.333Z,99.90
2017-08-24T01:33:51.868Z,99.90
2017-08-24T01:36:19.461Z,99.90
2017-08-24T01:38:47.005Z,99.90
2017-08-24T01:41:14.533Z,99.90
2017-08-24T01:43:42.057Z,99.90
2017-08-24T01:46:09.669Z,99.90
2017-08-24T01:48:37.258Z,99.90
2017-08-24T01:51:04.824Z,99.90
2017-08-24T01:53:32.364Z,99.90
2017-08-24T01:56:00.752Z,99.90
2017-08-24T01:58:28.314Z,99.90
2017-08-24T02:00:55.882Z,99.90
2017-08-24T02:03:23.410Z,99.90
2017-08-24T02:05:50.990Z,99.90
2017-08-24T02:08:18.558Z,99.90
2017-08-24T02:10:46.086Z,99.90
2017-08-24T02:13:13.622Z,99.90
2017-08-24T02:15:41.230Z,99.90
2017-08-24T02:18:08.761Z,99.90
2017-08-24T02:20:36.288Z,99.90
2017-08-24T02:23:03.917Z,99.90
2017-08-24T02:25:31.473Z,99.90
2017-08-24T02:27:59.014Z,99.90
2017-08-24T02:30:26.594Z,99.90
2017-08-24T02:32:54.157Z,99.90
2017-08-24T02:35:21.682Z,99.90
2017-08-24T02:37:49.222Z,99.90
2017-08-24T02:40:16.759Z,99.90
2017-08-24T02:42:44.399Z,99.90
2017-08-24T02:45:11.957Z,99.90
2017-08-24T02:47:39.509Z,99.90
2017-08-24T02:50:07.085Z,99.90
2017-08-24T02:52:34.627Z,99.90
2017-08-24T02:55:02.183Z,99.90
2017-08-24T02:57:29.715Z,99.90
2017-08-24T02:59:57.271Z,99.90
2017-08-24T03:02:24.797Z,99.90
2017-08-24T03:04:52.327Z,99.90
2017-08-24T03:07:19.884Z,99.90
2017-08-24T03:09:47.446Z,99.90
2017-08-24T03:12:14.998Z,99.90
2017-08-24T03:14:42.545Z,99.90
2017-08-24T03:17:10.124Z,99.90
2017-08-24T03:19:37.682Z,99.90
2017-08-24T03:22:05.340Z,99.90
2017-08-24T03:24:32.886Z,99.90
2017-08-24T03:27:00.466Z,99.90
2017-08-24T03:29:28.014Z,99.90
2017-08-24T03:31:55.545Z,99.90
2017-08-24T03:34:23.138Z,99.90
2017-08-24T03:36:50.702Z,99.90
2017-08-24T03:39:18.237Z,99.90
2017-08-24T03:41:45.822Z,99.90
2017-08-24T03:44:13.381Z,99.90
2017-08-24T03:46:40.941Z,99.90
2017-08-24T03:49:08.465Z,99.90
2017-08-24T03:51:36.009Z,99.90
2017-08-24T03:54:03.533Z,99.90
2017-08-24T03:56:31.061Z,99.90
2017-08-24T03:58:58.738Z,99.90
2017-08-24T04:01:26.294Z,99.90
2017-08-24T04:03:53.959Z,99.90
2017-08-24T04:06:21.500Z,99.90
2017-08-24T04:08:49.031Z,99.90
2017-08-24T04:11:16.637Z,99.90
2017-08-24T04:13:44.198Z,99.90
2017-08-24T04:16:11.720Z,99.90
2017-08-24T04:18:39.324Z,99.90
2017-08-24T04:21:06.867Z,99.90
2017-08-24T04:23:34.394Z,99.90
2017-08-24T04:26:02.022Z,99.90
2017-08-24T04:28:29.656Z,99.90
2017-08-24T04:30:57.223Z,99.90
2017-08-24T04:33:24.786Z,99.90
2017-08-24T04:35:52.330Z,99.90
2017-08-24T04:38:20.058Z,99.90
2017-08-24T04:40:47.661Z,99.90
2017-08-24T04:43:15.239Z,99.90
2017-08-24T04:45:42.785Z,99.90
2017-08-24T04:48:10.313Z,99.90
2017-08-24T04:50:37.882Z,99.90
2017-08-24T04:53:05.405Z,99.90
2017-08-24T04:55:33.013Z,99.90
2017-08-24T04:58:00.553Z,99.90
2017-08-24T05:00:28.143Z,99.90
2017-08-24T05:02:55.668Z,99.90
2017-08-24T05:05:23.264Z,99.90
2017-08-24T05:07:50.797Z,99.90
2017-08-24T05:10:18.386Z,99.90
2017-08-24T05:12:45.936Z,99.90
2017-08-24T05:15:13.513Z,99.90
2017-08-24T05:17:41.047Z,99.90
2017-08-24T05:20:08.602Z,99.90
2017-08-24T05:22:36.132Z,99.90
2017-08-24T05:25:03.666Z,99.90
2017-08-24T05:27:31.274Z,99.90
2017-08-24T05:29:58.809Z,99.90
2017-08-24T05:32:27.233Z,99.90
2017-08-24T05:34:54.775Z,99.90
2017-08-24T05:37:22.357Z,99.90
2017-08-24T05:39:49.880Z,99.90
2017-08-24T05:42:17.429Z,99.90
2017-08-24T05:44:44.975Z,99.90
2017-08-24T05:47:12.509Z,99.90
2017-08-24T05:49:40.086Z,99.90
2017-08-24T05:52:07.618Z,99.90
2017-08-24T05:54:35.158Z,99.90
2017-08-24T05:57:02.715Z,99.90
2017-08-24T05:59:30.344Z,99.90
2017-08-24T06:01:57.876Z,99.90
2017-08-24T06:04:25.420Z,99.90
2017-08-24T06:06:52.954Z,99.90
2017-08-24T06:09:20.480Z,99.90
2017-08-24T06:11:48.034Z,99.90
2017-08-24T06:14:15.652Z,99.90
2017-08-24T06:16:43.242Z,99.90
2017-08-24T06:19:10.790Z,99.90
2017-08-24T06:21:38.314Z,99.90
2017-08-24T06:24:05.838Z,99.90
2017-08-24T06:26:33.394Z,99.90
2017-08-24T06:29:01.002Z,99.90
2017-08-24T06:31:28.566Z,99.90
2017-08-24T06:33:56.427Z,99.90
2017-08-24T06:36:24.107Z,99.90
2017-08-24T06:38:51.853Z,99.90
2017-08-24T06:41:19.417Z,99.90
2017-08-24T06:43:46.948Z,99.90
2017-08-24T06:46:14.478Z,99.90
2017-08-24T06:48:42.109Z,99.90
2017-08-24T06:51:09.637Z,99.90
2017-08-24T06:53:37.157Z,99.90
2017-08-24T06:56:04.773Z,99.90
2017-08-24T06:58:32.339Z,99.90
2017-08-24T07:00:59.901Z,99.90
2017-08-24T07:03:27.449Z,99.90
2017-08-24T07:05:55.011Z,99.90
2017-08-24T07:08:22.599Z,99.90
2017-08-24T07:10:50.243Z,99.90
2017-08-24T07:13:17.797Z,99.90
2017-08-24T07:15:45.352Z,99.90
2017-08-24T07:18:12.910Z,99.90
2017-08-24T07:20:40.471Z,99.90
2017-08-24T07:23:08.031Z,99.90
2017-08-24T07:25:35.570Z,99.90
2017-08-24T07:28:03.100Z,99.90
2017-08-24T07:30:30.638Z,99.90
2017-08-24T07:32:58.177Z,99.90
2017-08-24T07:35:25.731Z,99.90
2017-08-24T07:37:53.294Z,99.90
2017-08-24T07:40:20.850Z,99.90
2017-08-24T07:42:48.369Z,99.90
2017-08-24T07:45:16.068Z,99.90
2017-08-24T07:47:43.615Z,99.90
2017-08-24T07:50:11.198Z,99.90
2017-08-24T07:52:38.749Z,99.90
2017-08-24T07:55:06.289Z,99.90
2017-08-24T07:57:33.869Z,99.90
2017-08-24T08:00:01.389Z,99.90
2017-08-24T08:02:28.957Z,99.90
2017-08-24T08:04:56.549Z,99.90
2017-08-24T08:07:24.110Z,99.90
2017-08-24T08:09:51.657Z,99.90
2017-08-24T08:12:19.311Z,99.90
2017-08-24T08:14:46.894Z,99.90
2017-08-24T08:17:14.446Z,99.90
2017-08-24T08:19:41.967Z,99.90
2017-08-24T08:22:09.566Z,99.90
2017-08-24T08:24:37.130Z,99.90
2017-08-24T08:27:04.652Z,99.90
2017-08-24T08:29:32.250Z,99.90
2017-08-24T08:31:59.990Z,99.90
2017-08-24T08:34:27.578Z,99.90
2017-08-24T08:36:55.107Z,99.90
2017-08-24T08:39:22.649Z,99.90
2017-08-24T08:41:50.269Z,99.90
2017-08-24T08:44:17.810Z,99.90
2017-08-24T08:46:45.374Z,99.90
2017-08-24T08:49:12.935Z,99.90
2017-08-24T08:51:40.468Z,99.90
2017-08-24T08:54:08.006Z,99.90
2017-08-24T08:56:35.530Z,99.90
2017-08-24T08:59:03.072Z,99.90
2017-08-24T09:01:30.621Z,99.90
2017-08-24T09:03:58.137Z,99.90
2017-08-24T09:06:25.785Z,99.90
2017-08-24T09:08:53.353Z,99.90
2017-08-24T09:11:20.981Z,99.90
2017-08-24T09:13:48.509Z,99.90
2017-08-24T09:16:16.049Z,99.90
2017-08-24T09:18:43.641Z,99.90
2017-08-24T09:21:11.206Z,99.90
2017-08-24T09:23:38.753Z,99.90
2017-08-24T09:26:06.325Z,98.50
2017-08-24T09:28:33.884Z,97.10
2017-08-24T09:31:01.545Z,96.70
2017-08-24T09:33:29.064Z,96.10
2017-08-24T09:35:56.670Z,96.90
2017-08-24T09:38:24.225Z,94.60
2017-08-24T09:40:51.781Z,94.90
2017-08-24T09:43:19.354Z,95.20
2017-08-24T09:45:46.906Z,95.20
2017-08-24T09:48:14.466Z,94.80
2017-08-24T09:50:42.022Z,93.70
2017-08-24T09:53:09.582Z,94.30
2017-08-24T09:55:37.141Z,93.60
2017-08-24T09:58:04.670Z,93.40
2017-08-24T10:00:32.265Z,92.10
2017-08-24T10:02:59.783Z,92.40
2017-08-24T10:05:27.312Z,92.00
2017-08-24T10:07:54.853Z,90.50
2017-08-24T10:10:23.365Z,88.60
2017-08-24T10:12:50.901Z,89.90
2017-08-24T10:15:18.447Z,91.00
2017-08-24T10:17:45.969Z,90.10
2017-08-24T10:20:13.501Z,88.00
2017-08-24T10:22:41.041Z,88.60
2017-08-24T10:25:09.393Z,87.60
2017-08-24T10:27:36.956Z,87.10
2017-08-24T10:30:04.581Z,85.90
2017-08-24T10:32:32.071Z,83.70
2017-08-24T10:34:59.606Z,84.70
2017-08-24T10:37:27.146Z,83.30
2017-08-24T10:39:55.475Z,78.20
2017-08-24T10:42:23.002Z,78.20
2017-08-24T10:44:50.556Z,75.70
2017-08-24T10:47:18.098Z,75.30
2017-08-24T10:49:45.671Z,72.70
2017-08-24T10:52:13.280Z,73.80
2017-08-24T10:54:40.801Z,70.70
2017-08-24T10:57:08.332Z,69.20
2017-08-24T10:59:35.962Z,67.20
2017-08-24T11:02:03.485Z,68.20
2017-08-24T11:04:31.066Z,67.90
2017-08-24T11:06:58.618Z,64.40
2017-08-24T11:09:26.137Z,60.10
2017-08-24T11:11:53.766Z,60.40
2017-08-24T11:14:21.405Z,60.40
2017-08-24T11:16:48.965Z,59.70
2017-08-24T11:19:16.523Z,61.60
2017-08-24T11:21:44.085Z,60.90
2017-08-24T11:24:11.643Z,61.70
2017-08-24T11:26:39.165Z,59.40
2017-08-24T11:29:06.777Z,59.70
2017-08-24T11:31:34.288Z,60.30
2017-08-24T11:34:01.814Z,61.90
2017-08-24T11:36:29.504Z,60.30
2017-08-24T11:38:57.037Z,60.70
2017-08-24T11:41:24.664Z,58.70
2017-08-24T11:43:52.225Z,57.40
2017-08-24T11:46:19.803Z,59.00
2017-08-24T11:48:47.346Z,56.40
2017-08-24T11:51:14.900Z,54.40
2017-08-24T11:53:42.462Z,50.80
2017-08-24T11:56:09.986Z,47.40
2017-08-24T11:58:37.582Z,45.60
2017-08-24T12:01:05.106Z,45.00
2017-08-24T12:03:32.630Z,43.80
2017-08-24T12:06:00.257Z,43.00
2017-08-24T12:08:27.797Z,43.40
2017-08-24T12:10:55.402Z,42.10
2017-08-24T12:13:22.947Z,42.20
2017-08-24T12:15:50.466Z,43.20
2017-08-24T12:18:18.065Z,43.50
2017-08-24T12:20:45.621Z,42.20
2017-08-24T12:23:13.175Z,41.60
2017-08-24T12:25:40.736Z,42.20
2017-08-24T12:28:08.277Z,40.80
2017-08-24T12:30:35.793Z,41.60
2017-08-24T12:33:03.421Z,41.20
2017-08-24T12:35:30.974Z,42.50
2017-08-24T12:37:58.529Z,41.70
2017-08-24T12:40:26.095Z,41.70
2017-08-24T12:42:53.648Z,39.00
2017-08-24T12:45:21.212Z,39.80
2017-08-24T12:47:48.734Z,37.60
2017-08-24T12:50:16.331Z,35.70
2017-08-24T12:52:43.850Z,34.50
2017-08-24T12:55:11.366Z,36.30
2017-08-24T12:57:39.022Z,37.70
2017-08-24T13:00:06.554Z,39.10
2017-08-24T13:02:34.074Z,38.70
2017-08-24T13:05:01.610Z,37.00
2017-08-24T13:07:29.150Z,36.70
2017-08-24T13:09:56.709Z,39.40
2017-08-24T13:12:24.253Z,40.10
2017-08-24T13:14:51.834Z,39.40
2017-08-24T13:17:19.357Z,40.00
2017-08-24T13:19:46.900Z,40.40
2017-08-24T13:22:14.514Z,39.90
2017-08-24T13:24:42.071Z,39.30
2017-08-24T13:27:09.606Z,40.70
2017-08-24T13:29:37.121Z,40.30
2017-08-24T13:32:04.637Z,40.20
2017-08-24T13:34:32.177Z,39.80
2017-08-24T13:36:59.696Z,40.50
2017-08-24T13:39:27.318Z,40.80
2017-08-24T13:41:54.885Z,41.30
2017-08-24T13:44:22.406Z,42.10
2017-08-24T13:46:49.984Z,42.60
2017-08-24T13:49:17.561Z,42.20
2017-08-24T13:51:45.122Z,41.60
2017-08-24T13:54:12.680Z,41.50
2017-08-24T13:56:40.238Z,41.50
2017-08-24T13:59:07.798Z,39.80
2017-08-24T14:01:35.362Z,38.00
2017-08-24T14:04:02.902Z,37.80
2017-08-24T14:06:30.486Z,36.70
2017-08-24T14:08:58.357Z,37.20
2017-08-24T14:11:26.007Z,37.80
2017-08-24T14:13:53.533Z,38.90
2017-08-24T14:16:21.053Z,39.20
2017-08-24T14:18:48.646Z,40.00
2017-08-24T14:21:16.938Z,41.70
2017-08-24T14:23:44.465Z,41.70
2017-08-24T14:26:12.085Z,41.90
2017-08-24T14:28:39.642Z,43.50
2017-08-24T14:31:07.201Z,44.00
2017-08-24T14:33:34.733Z,43.00
2017-08-24T14:36:02.256Z,41.00
2017-08-24T14:38:29.890Z,39.50
2017-08-24T14:40:57.431Z,40.60
2017-08-24T14:43:25.003Z,41.80
2017-08-24T14:45:52.520Z,41.40
2017-08-24T14:48:20.133Z,41.50
2017-08-24T14:50:47.702Z,41.00
2017-08-24T14:53:15.224Z,41.20
2017-08-24T14:55:42.760Z,43.10
2017-08-24T14:58:11.396Z,45.80
2017-08-24T15:00:38.920Z,45.80
2017-08-24T15:03:06.470Z,45.60
2017-08-24T15:05:34.010Z,43.70
2017-08-24T15:08:01.620Z,43.70
2017-08-24T15:10:29.182Z,43.50
2017-08-24T15:12:56.738Z,44.10
2017-08-24T15:15:24.305Z,44.50
2017-08-24T15:17:51.978Z,45.10
2017-08-24T15:20:19.517Z,46.90
2017-08-24T15:22:47.054Z,49.30
2017-08-24T15:25:14.631Z,49.20
2017-08-24T15:27:42.201Z,49.40
2017-08-24T15:30:09.783Z,49.50
2017-08-24T15:32:37.418Z,50.40
2017-08-24T15:35:05.093Z,51.10
2017-08-24T15:37:33.100Z,50.30
2017-08-24T15:40:00.676Z,51.80
2017-08-24T15:42:28.273Z,52.50
2017-08-24T15:44:55.793Z,53.30
2017-08-24T15:47:23.352Z,53.40
2017-08-24T15:49:51.050Z,53.70
2017-08-24T15:52:19.262Z,53.90
2017-08-24T15:54:46.936Z,54.00
2017-08-24T15:57:14.566Z,54.50
2017-08-24T16:12:44.558Z,54.50
2017-08-24T16:15:12.084Z,54.50
2017-08-24T16:17:39.666Z,54.50
2017-08-24T16:20:07.242Z,56.20
2017-08-24T16:22:34.784Z,57.20
2017-08-24T16:25:02.357Z,57.90
2017-08-24T16:27:29.902Z,58.20
2017-08-24T16:29:57.475Z,59.00
2017-08-24T16:32:24.993Z,59.50
2017-08-24T16:34:52.541Z,59.60
2017-08-24T16:37:20.111Z,60.20
2017-08-24T16:39:47.715Z,60.70
2017-08-24T16:42:15.279Z,61.60
2017-08-24T16:44:42.801Z,63.10
2017-08-24T16:47:10.408Z,63.40
2017-08-24T16:49:37.948Z,63.90
2017-08-24T16:52:05.515Z,64.60
2017-08-24T16:54:33.068Z,65.20
2017-08-24T16:57:00.635Z,65.30
2017-08-24T16:59:28.190Z,64.60
2017-08-24T17:01:55.748Z,65.50
2017-08-24T17:04:23.290Z,66.00
2017-08-24T17:06:50.874Z,66.90
2017-08-24T17:09:18.396Z,67.60
2017-08-24T17:11:45.986Z,68.50
2017-08-24T17:14:13.555Z,69.60
2017-08-24T17:16:41.082Z,70.30
2017-08-24T17:19:08.628Z,71.40
2017-08-24T17:21:36.151Z,72.50
2017-08-24T17:24:03.686Z,74.20
2017-08-24T17:26:31.230Z,76.10
2017-08-24T17:28:58.757Z,77.30
2017-08-24T17:31:26.385Z,79.10
2017-08-24T17:33:53.976Z,81.50
2017-08-24T17:36:21.508Z,84.30
2017-08-24T17:38:49.073Z,86.50
2017-08-24T17:41:16.621Z,87.00
2017-08-24T17:43:44.153Z,88.90
2017-08-24T17:46:11.727Z,90.70
2017-08-24T17:48:39.383Z,91.70
2017-08-24T17:51:06.951Z,93.10
2017-08-24T17:53:34.491Z,94.60
2017-08-24T17:56:02.039Z,95.90
2017-08-24T17:58:29.569Z,97.00
2017-08-24T18:00:57.187Z,98.50
2017-08-24T18:03:24.738Z,99.90
2017-08-24T18:05:52.268Z,99.90
2017-08-24T18:08:19.801Z,99.90
2017-08-24T18:10:47.440Z,99.90
2017-08-24T18:13:14.986Z,99.90
2017-08-24T18:15:42.517Z,99.90
2017-08-24T18:18:10.070Z,99.90
2017-08-24T18:20:38.442Z,99.90
2017-08-24T18:23:05.972Z,99.90
2017-08-24T18:25:33.612Z,99.90
2017-08-24T18:28:01.214Z,99.90
2017-08-24T18:30:28.742Z,99.90
2017-08-24T18:32:56.438Z,99.90
2017-08-24T18:35:24.046Z,99.90
2017-08-24T18:37:51.573Z,99.90
2017-08-24T18:40:19.211Z,99.90
2017-08-24T18:42:46.741Z,99.90
2017-08-24T18:45:14.269Z,99.90
2017-08-24T18:47:41.829Z,99.90
2017-08-24T18:50:09.413Z,99.90
2017-08-24T18:52:36.933Z,99.90
2017-08-24T18:55:04.481Z,99.90
2017-08-24T18:57:33.243Z,99.90
2017-08-24T19:00:00.880Z,99.90
2017-08-24T19:02:28.429Z,99.90
2017-08-24T19:04:55.965Z,99.90
2017-08-24T19:07:23.610Z,99.90
2017-08-24T19:09:51.205Z,99.90
2017-08-24T19:12:18.770Z,99.90
2017-08-24T19:14:46.409Z,99.90
2017-08-24T19:17:13.964Z,99.90
2017-08-24T19:19:41.551Z,99.90
2017-08-24T19:22:09.082Z,99.90
2017-08-24T19:24:36.658Z,99.90
2017-08-24T19:27:04.180Z,99.90
2017-08-24T19:29:31.718Z,99.90
2017-08-24T19:31:59.354Z,99.90
2017-08-24T19:34:26.877Z,99.90
2017-08-24T19:36:55.170Z,99.90
2017-08-24T19:39:22.741Z,99.90
2017-08-24T19:41:50.280Z,99.90
2017-08-24T19:44:17.837Z,99.90
2017-08-24T19:46:45.429Z,99.90
2017-08-24T19:49:12.949Z,99.90
2017-08-24T19:51:40.479Z,99.90
2017-08-24T19:54:08.113Z,99.90
2017-08-24T19:56:35.661Z,99.90
2017-08-24T19:59:03.195Z,99.90
2017-08-24T20:01:30.757Z,99.90
2017-08-24T20:03:58.289Z,99.90
2017-08-24T20:06:25.964Z,99.90
2017-08-24T20:08:53.906Z,99.90
2017-08-24T20:11:21.533Z,99.90
2017-08-24T20:13:49.089Z,99.90
2017-08-24T20:16:16.655Z,99.90
2017-08-24T20:18:44.298Z,99.90
2017-08-24T20:21:11.880Z,99.90
2017-08-24T20:23:39.532Z,99.90
2017-08-24T20:26:07.062Z,99.90
2017-08-24T20:28:34.590Z,99.90
2017-08-24T20:31:02.226Z,99.90
2017-08-24T20:33:29.853Z,99.90
2017-08-24T20:35:57.438Z,99.90
2017-08-24T20:38:24.994Z,99.90
2017-08-24T20:40:52.517Z,99.90
2017-08-24T20:43:20.081Z,99.90
2017-08-24T20:45:47.629Z,99.90
2017-08-24T20:48:15.153Z,99.90
2017-08-24T20:50:42.677Z,99.90
2017-08-24T20:53:10.229Z,99.90
2017-08-24T20:55:37.813Z,99.90
2017-08-24T20:58:05.337Z,99.90
2017-08-24T21:00:32.935Z,99.90
2017-08-24T21:03:00.493Z,99.90
2017-08-24T21:05:28.017Z,99.90
2017-08-24T21:07:55.609Z,99.90
2017-08-24T21:10:23.139Z,99.90
2017-08-24T21:12:50.675Z,99.90
2017-08-24T21:15:18.231Z,99.90
2017-08-24T21:17:45.862Z,99.90
2017-08-24T21:20:13.400Z,99.90
2017-08-24T21:22:40.967Z,99.90
2017-08-24T21:25:08.526Z,99.90
2017-08-24T21:27:36.050Z,99.90
2017-08-24T21:30:04.354Z,99.90
2017-08-24T21:32:31.923Z,99.90
2017-08-24T21:34:59.458Z,99.90
2017-08-24T21:37:27.042Z,99.90
2017-08-24T21:39:54.598Z,99.90
2017-08-24T21:42:22.154Z,99.90
2017-08-24T21:44:49.701Z,99.90
2017-08-24T21:47:17.334Z,99.90
2017-08-24T21:49:44.941Z,99.90
2017-08-24T21:52:12.481Z,99.90
2017-08-24T21:54:40.061Z,99.90
2017-08-24T21:57:07.585Z,99.90
2017-08-24T21:59:35.178Z,99.90
2017-08-24T22:02:02.705Z,99.90
2017-08-24T22:04:30.293Z,99.90
2017-08-24T22:06:57.835Z,99.90
2017-08-24T22:09:25.417Z,99.90
2017-08-24T22:11:52.939Z,99.90
2017-08-24T22:14:20.531Z,99.90
2017-08-24T22:16:48.076Z,99.90
2017-08-24T22:19:15.592Z,99.90
2017-08-24T22:21:43.124Z,99.90
2017-08-24T22:24:10.644Z,99.90
2017-08-24T22:26:38.169Z,99.90
2017-08-24T22:29:05.708Z,99.90
2017-08-24T22:31:33.230Z,99.90
2017-08-24T22:34:00.745Z,99.90
2017-08-24T22:36:28.282Z,99.90
2017-08-24T22:38:55.822Z,99.90
2017-08-24T22:41:23.484Z,99.90
2017-08-24T22:43:51.032Z,99.90
2017-08-24T22:46:18.553Z,99.90
2017-08-24T22:48:46.078Z,99.90
2017-08-24T22:51:13.613Z,99.90
2017-08-24T22:53:46.786Z,99.90
2017-08-24T23:09:33.733Z,99.90
2017-08-24T23:12:01.259Z,99.90
2017-08-24T23:14:29.492Z,99.90
2017-08-24T23:16:57.048Z,99.90
2017-08-24T23:19:24.566Z,99.90
2017-08-24T23:21:52.124Z,99.90
2017-08-24T23:24:19.686Z,99.90
2017-08-24T23:26:47.206Z,99.90
2017-08-24T23:29:15.026Z,99.90
2017-08-24T23:31:42.563Z,99.90
2017-08-24T23:34:10.082Z,99.90
2017-08-24T23:36:37.618Z,99.90
2017-08-24T23:39:05.158Z,99.90
2017-08-24T23:41:32.710Z,99.90
2017-08-24T23:44:00.234Z,99.90
2017-08-24T23:46:27.826Z,99.90
2017-08-24T23:48:55.390Z,99.90
2017-08-24T23:51:22.944Z,99.90
2017-08-24T23:53:50.483Z,99.90
2017-08-24T23:56:18.032Z,99.90
2017-08-24T23:58:45.541Z,99.90
